sensor_id;sensor_type;location;lat;lon;timestamp;pressure;altitude;pressure_sealevel;temperature;humidity
70458;BME280;57919;56.194;95.716;2023-03-18T00:02:32;99531.53;;;-5.89;67.30
70458;BME280;57919;56.194;95.716;2023-03-18T00:12:34;99538.44;;;-5.83;66.67
70458;BME280;57919;56.194;95.716;2023-03-18T00:22:36;99529.56;;;-5.77;66.56
70458;BME280;57919;56.194;95.716;2023-03-18T00:32:39;99514.34;;;-5.60;67.11
70458;BME280;57919;56.194;95.716;2023-03-18T00:42:42;99518.13;;;-5.29;67.93
70458;BME280;57919;56.194;95.716;2023-03-18T00:52:48;99516.44;;;-4.90;68.18
70458;BME280;57919;56.194;95.716;2023-03-18T01:02:51;99509.78;;;-4.67;68.46
70458;BME280;57919;56.194;95.716;2023-03-18T01:12:53;99486.06;;;-4.30;67.99
70458;BME280;57919;56.194;95.716;2023-03-18T01:22:55;99497.06;;;-3.77;66.33
70458;BME280;57919;56.194;95.716;2023-03-18T01:32:57;99481.84;;;-3.06;65.18
70458;BME280;57919;56.194;95.716;2023-03-18T01:43:14;99488.16;;;-1.97;63.24
70458;BME280;57919;56.194;95.716;2023-03-18T01:53:19;99474.66;;;-0.91;59.60
70458;BME280;57919;56.194;95.716;2023-03-18T02:03:22;99494.66;;;-0.14;57.29
70458;BME280;57919;56.194;95.716;2023-03-18T02:13:24;99482.16;;;1.49;56.14
70458;BME280;57919;56.194;95.716;2023-03-18T02:33:51;99466.16;;;3.39;51.16
70458;BME280;57919;56.194;95.716;2023-03-18T02:43:55;99461.66;;;4.48;49.67
70458;BME280;57919;56.194;95.716;2023-03-18T02:54:07;99446.81;;;5.44;47.82
70458;BME280;57919;56.194;95.716;2023-03-18T03:04:11;99428.13;;;5.42;45.98
70458;BME280;57919;56.194;95.716;2023-03-18T03:14:14;99413.47;;;5.48;47.17
70458;BME280;57919;56.194;95.716;2023-03-18T03:24:18;99393.78;;;6.80;43.15
70458;BME280;57919;56.194;95.716;2023-03-18T03:34:21;99376.25;;;6.88;43.69
70458;BME280;57919;56.194;95.716;2023-03-18T03:44:23;99355.09;;;7.69;42.50
70458;BME280;57919;56.194;95.716;2023-03-18T03:54:25;99353.66;;;7.52;42.40
70458;BME280;57919;56.194;95.716;2023-03-18T04:04:28;99340.25;;;7.39;42.27
70458;BME280;57919;56.194;95.716;2023-03-18T04:14:30;99326.97;;;7.73;42.79
70458;BME280;57919;56.194;95.716;2023-03-18T04:24:32;99312.28;;;8.36;42.47
70458;BME280;57919;56.194;95.716;2023-03-18T04:34:34;99287.34;;;9.01;41.82
70458;BME280;57919;56.194;95.716;2023-03-18T04:44:36;99272.56;;;10.95;40.21
70458;BME280;57919;56.194;95.716;2023-03-18T04:54:39;99255.38;;;12.14;37.91
70458;BME280;57919;56.194;95.716;2023-03-18T05:04:41;99244.75;;;12.49;37.13
70458;BME280;57919;56.194;95.716;2023-03-18T05:14:44;99231.75;;;12.90;36.21
70458;BME280;57919;56.194;95.716;2023-03-18T05:24:46;99225.50;;;13.07;36.06
70458;BME280;57919;56.194;95.716;2023-03-18T05:34:49;99216.88;;;12.94;35.51
70458;BME280;57919;56.194;95.716;2023-03-18T05:44:52;99216.47;;;12.52;35.42
70458;BME280;57919;56.194;95.716;2023-03-18T05:54:57;99196.13;;;12.19;35.91
70458;BME280;57919;56.194;95.716;2023-03-18T06:05:04;99183.41;;;12.29;35.60
70458;BME280;57919;56.194;95.716;2023-03-18T06:15:07;99166.75;;;12.05;35.71
70458;BME280;57919;56.194;95.716;2023-03-18T06:25:09;99153.91;;;12.16;35.60
70458;BME280;57919;56.194;95.716;2023-03-18T06:35:14;99122.25;;;11.98;35.73
70458;BME280;57919;56.194;95.716;2023-03-18T06:45:18;99102.16;;;11.90;35.45
70458;BME280;57919;56.194;95.716;2023-03-18T06:55:32;99086.06;;;11.60;36.05
70458;BME280;57919;56.194;95.716;2023-03-18T07:05:37;99063.72;;;11.29;36.92
70458;BME280;57919;56.194;95.716;2023-03-18T07:15:40;99052.75;;;11.02;37.45
70458;BME280;57919;56.194;95.716;2023-03-18T07:25:43;99036.09;;;10.77;38.13
70458;BME280;57919;56.194;95.716;2023-03-18T07:35:45;99022.25;;;10.51;38.30
70458;BME280;57919;56.194;95.716;2023-03-18T07:45:47;98997.31;;;10.38;38.55
70458;BME280;57919;56.194;95.716;2023-03-18T07:55:48;98985.63;;;10.28;38.53
70458;BME280;57919;56.194;95.716;2023-03-18T08:05:51;98972.97;;;10.28;38.83
70458;BME280;57919;56.194;95.716;2023-03-18T08:15:53;98961.16;;;10.39;38.93
70458;BME280;57919;56.194;95.716;2023-03-18T08:25:56;98951.63;;;10.54;38.79
70458;BME280;57919;56.194;95.716;2023-03-18T08:35:59;98947.38;;;10.61;38.71
70458;BME280;57919;56.194;95.716;2023-03-18T08:46:01;98928.00;;;10.56;39.15
70458;BME280;57919;56.194;95.716;2023-03-18T08:56:04;98930.56;;;10.58;39.34
70458;BME280;57919;56.194;95.716;2023-03-18T09:06:07;98913.34;;;10.59;39.41
70458;BME280;57919;56.194;95.716;2023-03-18T09:16:10;98887.44;;;10.37;39.61
70458;BME280;57919;56.194;95.716;2023-03-18T09:26:12;98880.56;;;10.04;40.14
70458;BME280;57919;56.194;95.716;2023-03-18T09:36:15;98864.03;;;9.78;40.67
70458;BME280;57919;56.194;95.716;2023-03-18T09:46:43;98851.47;;;9.58;40.96
70458;BME280;57919;56.194;95.716;2023-03-18T09:56:51;98829.19;;;9.25;41.24
70458;BME280;57919;56.194;95.716;2023-03-18T10:07:06;98823.53;;;8.98;41.83
70458;BME280;57919;56.194;95.716;2023-03-18T10:17:23;98801.81;;;8.69;42.41
70458;BME280;57919;56.194;95.716;2023-03-18T10:37:56;98768.03;;;8.23;43.67
70458;BME280;57919;56.194;95.716;2023-03-18T10:48:38;98768.56;;;7.96;43.78
70458;BME280;57919;56.194;95.716;2023-03-18T10:58:43;98774.28;;;7.71;44.13
70458;BME280;57919;56.194;95.716;2023-03-18T11:08:47;98768.00;;;7.50;44.23
70458;BME280;57919;56.194;95.716;2023-03-18T11:18:50;98765.00;;;7.32;44.35
70458;BME280;57919;56.194;95.716;2023-03-18T11:28:58;98761.13;;;7.13;44.39
70458;BME280;57919;56.194;95.716;2023-03-18T11:39:03;98767.38;;;6.92;44.83
70458;BME280;57919;56.194;95.716;2023-03-18T11:49:14;98770.31;;;6.44;45.73
70458;BME280;57919;56.194;95.716;2023-03-18T12:09:47;98777.47;;;5.86;46.63
70458;BME280;57919;56.194;95.716;2023-03-18T12:50:42;98755.41;;;5.35;47.77
70458;BME280;57919;56.194;95.716;2023-03-18T13:00:59;98746.69;;;5.20;47.97
70458;BME280;57919;56.194;95.716;2023-03-18T13:21:19;98753.38;;;5.02;48.56
70458;BME280;57919;56.194;95.716;2023-03-18T13:51:54;98737.38;;;4.76;49.19
70458;BME280;57919;56.194;95.716;2023-03-18T14:02:22;98742.97;;;4.73;49.62
70458;BME280;57919;56.194;95.716;2023-03-18T14:22:35;98726.28;;;4.57;49.81
70458;BME280;57919;56.194;95.716;2023-03-18T14:32:39;98731.84;;;4.54;49.69
70458;BME280;57919;56.194;95.716;2023-03-18T14:43:22;98718.56;;;4.52;50.34
70458;BME280;57919;56.194;95.716;2023-03-18T15:03:46;98722.88;;;4.30;50.55
70458;BME280;57919;56.194;95.716;2023-03-18T15:13:55;98716.69;;;4.16;51.19
70458;BME280;57919;56.194;95.716;2023-03-18T15:24:06;98725.66;;;3.90;51.77
70458;BME280;57919;56.194;95.716;2023-03-18T15:34:21;98729.16;;;3.65;52.20
70458;BME280;57919;56.194;95.716;2023-03-18T15:44:28;98725.38;;;3.42;52.05
70458;BME280;57919;56.194;95.716;2023-03-18T15:54:40;98730.22;;;3.23;52.77
70458;BME280;57919;56.194;95.716;2023-03-18T16:04:43;98716.75;;;3.24;53.75
70458;BME280;57919;56.194;95.716;2023-03-18T16:14:49;98708.91;;;3.09;53.74
70458;BME280;57919;56.194;95.716;2023-03-18T16:24:52;98707.19;;;2.81;53.60
70458;BME280;57919;56.194;95.716;2023-03-18T16:34:54;98689.03;;;2.45;53.89
70458;BME280;57919;56.194;95.716;2023-03-18T16:44:56;98682.00;;;2.30;54.54
70458;BME280;57919;56.194;95.716;2023-03-18T16:54:58;98668.75;;;2.42;54.41
70458;BME280;57919;56.194;95.716;2023-03-18T17:05:01;98658.44;;;2.50;53.96
70458;BME280;57919;56.194;95.716;2023-03-18T17:15:05;98654.16;;;2.48;54.10
70458;BME280;57919;56.194;95.716;2023-03-18T17:25:10;98646.47;;;2.29;53.93
70458;BME280;57919;56.194;95.716;2023-03-18T17:35:16;98649.72;;;2.20;54.12
70458;BME280;57919;56.194;95.716;2023-03-18T17:45:30;98637.63;;;2.14;54.32
70458;BME280;57919;56.194;95.716;2023-03-18T17:55:32;98621.63;;;2.14;54.05
70458;BME280;57919;56.194;95.716;2023-03-18T18:05:34;98618.00;;;2.15;53.91
70458;BME280;57919;56.194;95.716;2023-03-18T18:15:36;98624.31;;;1.86;54.12
70458;BME280;57919;56.194;95.716;2023-03-18T18:25:38;98603.34;;;1.51;54.68
70458;BME280;57919;56.194;95.716;2023-03-18T18:35:40;98607.31;;;1.30;54.85
70458;BME280;57919;56.194;95.716;2023-03-18T18:45:43;98599.94;;;1.05;55.46
70458;BME280;57919;56.194;95.716;2023-03-18T18:55:45;98594.50;;;0.92;55.92
70458;BME280;57919;56.194;95.716;2023-03-18T19:05:49;98574.88;;;0.79;55.92
70458;BME280;57919;56.194;95.716;2023-03-18T19:15:53;98567.59;;;0.67;56.31
70458;BME280;57919;56.194;95.716;2023-03-18T19:25:56;98561.75;;;0.30;57.77
70458;BME280;57919;56.194;95.716;2023-03-18T19:36:05;98543.84;;;-0.13;58.14
70458;BME280;57919;56.194;95.716;2023-03-18T19:46:14;98522.75;;;-0.48;59.90
70458;BME280;57919;56.194;95.716;2023-03-18T19:56:27;98523.75;;;-0.66;60.31
70458;BME280;57919;56.194;95.716;2023-03-18T20:06:29;98506.84;;;-0.81;60.55
70458;BME280;57919;56.194;95.716;2023-03-18T20:16:31;98487.81;;;-0.89;61.43
70458;BME280;57919;56.194;95.716;2023-03-18T20:26:33;98474.50;;;-1.05;61.72
70458;BME280;57919;56.194;95.716;2023-03-18T20:36:35;98468.78;;;-1.30;63.10
70458;BME280;57919;56.194;95.716;2023-03-18T20:46:37;98464.13;;;-1.42;63.38
70458;BME280;57919;56.194;95.716;2023-03-18T20:56:41;98447.56;;;-1.30;63.82
70458;BME280;57919;56.194;95.716;2023-03-18T21:06:43;98439.94;;;-1.36;64.51
70458;BME280;57919;56.194;95.716;2023-03-18T21:16:44;98418.56;;;-1.50;65.26
70458;BME280;57919;56.194;95.716;2023-03-18T21:26:46;98419.06;;;-1.59;65.12
70458;BME280;57919;56.194;95.716;2023-03-18T21:36:49;98401.88;;;-1.52;64.41
70458;BME280;57919;56.194;95.716;2023-03-18T21:46:51;98390.97;;;-1.46;64.38
70458;BME280;57919;56.194;95.716;2023-03-18T21:56:53;98383.09;;;-1.48;64.22
70458;BME280;57919;56.194;95.716;2023-03-18T22:06:55;98370.38;;;-1.58;64.15
70458;BME280;57919;56.194;95.716;2023-03-18T22:16:57;98359.66;;;-1.73;63.94
70458;BME280;57919;56.194;95.716;2023-03-18T22:26:59;98351.72;;;-1.90;64.01
70458;BME280;57919;56.194;95.716;2023-03-18T22:37:01;98331.25;;;-2.04;64.16
70458;BME280;57919;56.194;95.716;2023-03-18T22:47:03;98320.03;;;-2.26;65.14
70458;BME280;57919;56.194;95.716;2023-03-18T22:57:06;98311.22;;;-2.44;66.23
70458;BME280;57919;56.194;95.716;2023-03-18T23:07:30;98312.63;;;-2.54;66.90
70458;BME280;57919;56.194;95.716;2023-03-18T23:17:33;98302.28;;;-2.58;66.94
70458;BME280;57919;56.194;95.716;2023-03-18T23:27:35;98299.09;;;-2.48;66.66
70458;BME280;57919;56.194;95.716;2023-03-18T23:37:37;98294.41;;;-2.43;66.72
70458;BME280;57919;56.194;95.716;2023-03-18T23:47:38;98281.56;;;-2.50;66.71
70458;BME280;57919;56.194;95.716;2023-03-18T23:57:41;98278.44;;;-2.41;66.84
